createdAt,value
2023-04-11T00:01:23.655Z,99.90
2023-04-11T00:03:50.841Z,99.90
2023-04-11T00:06:17.644Z,99.90
2023-04-11T00:08:44.517Z,99.90
2023-04-11T00:11:11.209Z,99.90
2023-04-11T00:13:38.433Z,99.90
2023-04-11T00:16:07.688Z,99.90
2023-04-11T00:18:37.051Z,99.90
2023-04-11T00:21:04.480Z,99.90
2023-04-11T00:23:31.204Z,99.90
2023-04-11T00:25:58.417Z,99.90
2023-04-11T00:28:25.378Z,99.90
2023-04-11T00:30:52.047Z,99.90
2023-04-11T00:33:19.043Z,99.90
2023-04-11T00:35:45.880Z,99.90
2023-04-11T00:38:12.751Z,99.90
2023-04-11T00:40:40.143Z,99.90
2023-04-11T00:43:06.813Z,99.90
2023-04-11T00:45:33.790Z,99.90
2023-04-11T00:48:01.354Z,99.90
2023-04-11T00:50:28.723Z,99.90
2023-04-11T00:52:56.640Z,99.90
2023-04-11T00:55:23.763Z,99.90
2023-04-11T00:57:53.662Z,99.90
2023-04-11T01:00:20.409Z,99.90
2023-04-11T01:02:47.248Z,99.90
2023-04-11T01:05:14.943Z,99.90
2023-04-11T01:07:45.629Z,99.90
2023-04-11T01:10:13.797Z,99.90
2023-04-11T01:12:42.266Z,99.90
2023-04-11T01:15:09.315Z,99.90
2023-04-11T01:17:36.114Z,99.90
2023-04-11T01:20:03.319Z,99.90
2023-04-11T01:22:30.560Z,99.90
2023-04-11T01:24:57.487Z,99.90
2023-04-11T01:27:24.202Z,99.90
2023-04-11T01:29:51.040Z,99.90
2023-04-11T01:32:17.756Z,99.90
2023-04-11T01:34:46.937Z,99.90
2023-04-11T01:37:13.730Z,99.90
2023-04-11T01:39:40.438Z,99.90
2023-04-11T01:42:07.779Z,99.90
2023-04-11T01:44:36.134Z,99.90
2023-04-11T01:47:03.657Z,99.90
2023-04-11T01:49:30.719Z,99.90
2023-04-11T01:51:57.398Z,99.90
2023-04-11T01:54:24.082Z,99.90
2023-04-11T01:56:52.144Z,99.90
2023-04-11T01:59:19.477Z,99.90
2023-04-11T02:01:46.374Z,99.90
2023-04-11T02:04:13.372Z,99.90
2023-04-11T02:06:41.473Z,99.90
2023-04-11T02:09:08.203Z,99.90
2023-04-11T02:11:34.985Z,99.90
2023-04-11T02:14:03.418Z,99.90
2023-04-11T02:16:30.630Z,99.90
2023-04-11T02:18:58.006Z,99.90
2023-04-11T02:21:25.538Z,99.90
2023-04-11T02:23:52.206Z,99.90
2023-04-11T02:26:20.522Z,99.90
2023-04-11T02:28:47.797Z,99.90
2023-04-11T02:31:14.484Z,99.90
2023-04-11T02:33:43.365Z,99.90
2023-04-11T02:36:12.349Z,99.90
2023-04-11T02:38:39.064Z,99.90
2023-04-11T02:41:06.740Z,99.90
2023-04-11T02:43:33.533Z,99.90
2023-04-11T02:46:11.587Z,99.90
2023-04-11T02:48:40.602Z,99.90
2023-04-11T02:51:07.289Z,99.90
2023-04-11T02:53:33.969Z,99.90
2023-04-11T02:56:01.324Z,99.90
2023-04-11T02:58:28.815Z,99.90
2023-04-11T03:00:58.242Z,99.90
2023-04-11T03:03:24.996Z,99.90
2023-04-11T03:05:51.940Z,99.90
2023-04-11T03:08:22.985Z,99.90
2023-04-11T03:10:52.786Z,99.90
2023-04-11T03:13:21.726Z,99.90
2023-04-11T03:15:48.483Z,99.90
2023-04-11T03:18:16.165Z,99.90
2023-04-11T03:20:45.251Z,99.90
2023-04-11T03:23:14.316Z,99.90
2023-04-11T03:25:41.296Z,99.90
2023-04-11T03:28:08.704Z,99.90
2023-04-11T03:30:35.628Z,99.90
2023-04-11T03:33:02.357Z,99.90
2023-04-11T03:35:30.771Z,99.90
2023-04-11T03:37:57.570Z,99.90
2023-04-11T03:40:24.861Z,99.90
2023-04-11T03:43:04.342Z,99.90
2023-04-11T03:45:34.681Z,99.90
2023-04-11T03:48:04.928Z,99.90
2023-04-11T03:50:45.162Z,99.90
2023-04-11T03:53:13.841Z,99.90
2023-04-11T03:55:43.825Z,99.90
2023-04-11T03:58:12.941Z,99.90
2023-04-11T04:00:41.594Z,99.90
2023-04-11T04:03:09.576Z,99.90
2023-04-11T04:05:38.300Z,99.90
2023-04-11T04:08:05.363Z,99.90
2023-04-11T04:10:42.245Z,99.90
2023-04-11T04:13:09.484Z,99.90
2023-04-11T04:15:40.651Z,99.90
2023-04-11T04:18:08.769Z,99.90
2023-04-11T04:21:01.489Z,99.90
2023-04-11T04:23:29.948Z,99.90
2023-04-11T04:26:17.846Z,99.90
2023-04-11T04:28:53.961Z,99.90
2023-04-11T04:31:33.478Z,99.90
2023-04-11T04:34:09.976Z,99.90
2023-04-11T04:36:47.774Z,99.90
2023-04-11T04:39:19.410Z,99.90
2023-04-11T04:41:49.894Z,99.90
2023-04-11T04:44:17.423Z,99.90
2023-04-11T04:46:54.840Z,99.90
2023-04-11T04:49:24.103Z,99.90
2023-04-11T04:51:50.783Z,99.90
2023-04-11T04:54:19.415Z,99.90
2023-04-11T04:56:48.149Z,99.90
2023-04-11T04:59:16.445Z,99.90
2023-04-11T05:01:51.582Z,99.90
2023-04-11T05:04:24.199Z,99.90
2023-04-11T05:06:54.721Z,99.90
2023-04-11T05:09:21.701Z,99.90
2023-04-11T05:11:50.594Z,99.90
2023-04-11T05:14:18.071Z,99.90
2023-04-11T05:16:45.078Z,99.90
2023-04-11T05:19:12.277Z,99.90
2023-04-11T05:21:42.896Z,99.90
2023-04-11T05:24:09.776Z,99.90
2023-04-11T05:26:37.309Z,99.90
2023-04-11T05:29:04.310Z,99.90
2023-04-11T05:31:31.795Z,99.90
2023-04-11T05:33:58.953Z,99.90
2023-04-11T05:36:28.325Z,99.90
2023-04-11T05:38:55.478Z,99.90
2023-04-11T05:41:22.222Z,99.90
2023-04-11T05:43:48.916Z,99.90
2023-04-11T05:46:15.824Z,99.90
2023-04-11T05:48:42.570Z,99.90
2023-04-11T05:51:09.658Z,99.90
2023-04-11T05:53:36.346Z,99.90
2023-04-11T05:56:03.071Z,99.90
2023-04-11T05:58:30.266Z,99.90
2023-04-11T06:00:59.668Z,99.90
2023-04-11T06:03:27.287Z,99.90
2023-04-11T06:05:54.266Z,99.90
2023-04-11T06:08:21.427Z,99.90
2023-04-11T06:10:48.188Z,99.90
2023-04-11T06:13:14.932Z,99.90
2023-04-11T06:15:41.847Z,99.90
2023-04-11T06:18:08.691Z,99.90
2023-04-11T06:20:35.374Z,99.90
2023-04-11T06:23:02.039Z,99.90
2023-04-11T06:25:28.715Z,99.90
2023-04-11T06:27:55.661Z,99.90
2023-04-11T06:30:22.379Z,99.90
2023-04-11T06:32:49.124Z,99.90
2023-04-11T06:35:15.983Z,99.90
2023-04-11T06:37:42.658Z,99.90
2023-04-11T06:40:09.803Z,99.90
2023-04-11T06:42:36.501Z,99.90
2023-04-11T06:45:04.874Z,99.90
2023-04-11T06:47:31.811Z,99.90
2023-04-11T06:49:59.243Z,99.90
2023-04-11T06:52:28.199Z,99.90
2023-04-11T06:54:55.030Z,99.90
2023-04-11T06:57:21.961Z,99.90
2023-04-11T06:59:48.747Z,99.90
2023-04-11T07:02:15.560Z,99.90
2023-04-11T07:04:42.474Z,99.90
2023-04-11T07:07:09.374Z,99.90
2023-04-11T07:09:36.397Z,99.90
2023-04-11T07:12:03.080Z,99.90
2023-04-11T07:14:29.837Z,99.90
2023-04-11T07:16:56.509Z,99.90
2023-04-11T07:19:23.230Z,99.90
2023-04-11T07:21:49.885Z,99.90
2023-04-11T07:24:18.652Z,99.90
2023-04-11T07:26:46.497Z,99.90
2023-04-11T07:29:14.839Z,99.90
2023-04-11T07:31:42.059Z,99.90
2023-04-11T07:34:09.001Z,99.90
2023-04-11T07:36:35.898Z,99.90
2023-04-11T07:39:04.329Z,99.90
2023-04-11T07:41:31.100Z,99.90
2023-04-11T07:43:58.080Z,99.90
2023-04-11T07:46:24.989Z,99.90
2023-04-11T07:48:51.685Z,99.90
2023-04-11T07:51:18.783Z,99.90
2023-04-11T07:53:45.613Z,99.90
2023-04-11T07:56:12.444Z,99.90
2023-04-11T07:58:39.207Z,99.90
2023-04-11T08:01:08.966Z,99.90
2023-04-11T08:03:36.190Z,99.90
2023-04-11T08:06:03.129Z,99.90
2023-04-11T08:08:29.876Z,99.90
2023-04-11T08:10:56.540Z,99.90
2023-04-11T08:13:23.225Z,99.90
2023-04-11T08:15:49.974Z,99.90
2023-04-11T08:18:16.722Z,99.90
2023-04-11T08:20:43.385Z,99.90
2023-04-11T08:23:10.513Z,99.90
2023-04-11T08:25:37.287Z,99.90
2023-04-11T08:28:05.130Z,99.90
2023-04-11T08:30:32.186Z,99.90
2023-04-11T08:32:58.983Z,99.90
2023-04-11T08:35:25.730Z,99.90
2023-04-11T08:37:52.418Z,99.90
2023-04-11T08:40:19.053Z,99.90
2023-04-11T08:42:46.097Z,99.90
2023-04-11T08:45:13.040Z,99.90
2023-04-11T08:47:39.792Z,99.90
2023-04-11T08:50:07.271Z,99.90
2023-04-11T08:52:34.544Z,99.90
2023-04-11T08:55:01.582Z,99.90
2023-04-11T08:57:33.304Z,99.90
2023-04-11T09:00:09.037Z,99.90
2023-04-11T09:02:35.879Z,99.90
2023-04-11T09:05:02.811Z,99.90
2023-04-11T09:07:29.576Z,99.90
2023-04-11T09:09:56.283Z,99.90
2023-04-11T09:12:30.263Z,99.90
2023-04-11T09:14:57.002Z,99.90
2023-04-11T09:17:23.830Z,99.90
2023-04-11T09:19:50.554Z,99.90
2023-04-11T09:22:17.182Z,99.90
2023-04-11T09:24:43.916Z,99.90
2023-04-11T09:27:16.378Z,99.90
2023-04-11T09:29:47.536Z,99.90
2023-04-11T09:32:30.524Z,99.90
2023-04-11T09:35:16.259Z,99.90
2023-04-11T09:37:47.663Z,99.90
2023-04-11T09:40:16.462Z,99.90
2023-04-11T09:42:44.094Z,99.90
2023-04-11T09:45:18.498Z,99.90
2023-04-11T09:47:46.121Z,99.90
2023-04-11T09:50:13.247Z,99.90
2023-04-11T09:52:42.925Z,99.90
2023-04-11T09:55:12.537Z,99.90
2023-04-11T09:57:45.589Z,99.90
2023-04-11T10:00:16.679Z,99.90
2023-04-11T10:02:45.172Z,99.90
2023-04-11T10:05:13.357Z,99.90
2023-04-11T10:07:52.808Z,99.90
2023-04-11T10:10:24.121Z,99.90
2023-04-11T10:12:51.179Z,99.90
2023-04-11T10:15:18.967Z,99.90
2023-04-11T10:18:11.581Z,99.90
2023-04-11T10:20:48.156Z,99.90
2023-04-11T10:23:16.061Z,99.90
2023-04-11T10:25:53.236Z,99.90
2023-04-11T10:28:39.668Z,99.90
2023-04-11T10:31:13.885Z,99.90
2023-04-11T10:34:11.743Z,99.90
2023-04-11T10:37:17.179Z,99.90
2023-04-11T10:40:09.072Z,99.90
2023-04-11T10:42:38.164Z,99.90
2023-04-11T10:45:29.813Z,99.90
2023-04-11T10:47:56.675Z,99.90
2023-04-11T10:50:29.183Z,99.90
2023-04-11T10:52:57.654Z,99.90
2023-04-11T10:55:28.918Z,99.90
2023-04-11T10:58:22.244Z,99.90
2023-04-11T11:00:55.599Z,99.90
2023-04-11T11:03:31.662Z,99.90
2023-04-11T11:06:00.927Z,99.90
2023-04-11T11:08:35.071Z,99.90
2023-04-11T11:11:03.690Z,99.90
2023-04-11T11:13:41.075Z,99.90
2023-04-11T11:16:09.093Z,99.90
2023-04-11T11:18:36.805Z,99.90
2023-04-11T11:21:04.732Z,99.90
2023-04-11T11:23:33.287Z,99.90
2023-04-11T11:26:01.107Z,99.90
2023-04-11T11:30:57.387Z,99.90
2023-04-11T11:33:26.605Z,99.90
2023-04-11T11:35:57.948Z,99.90
2023-04-11T11:38:29.281Z,99.90
2023-04-11T11:40:57.528Z,98.90
2023-04-11T11:43:27.391Z,98.00
2023-04-11T11:46:08.751Z,96.60
2023-04-11T11:48:36.484Z,96.20
2023-04-11T11:51:03.523Z,95.00
2023-04-11T11:53:30.391Z,93.80
2023-04-11T11:55:57.614Z,94.80
2023-04-11T11:58:25.088Z,96.10
2023-04-11T12:00:52.477Z,96.00
2023-04-11T12:03:24.332Z,95.10
2023-04-11T12:05:55.096Z,95.00
2023-04-11T12:08:22.255Z,94.40
2023-04-11T12:10:50.187Z,93.80
2023-04-11T12:13:26.568Z,93.20
2023-04-11T12:15:55.685Z,93.00
2023-04-11T12:18:23.684Z,91.30
2023-04-11T12:20:51.344Z,91.60
2023-04-11T12:23:18.570Z,91.50
2023-04-11T12:25:46.264Z,90.70
2023-04-11T12:28:13.790Z,91.00
2023-04-11T12:30:40.581Z,91.80
2023-04-11T12:33:07.477Z,91.10
2023-04-11T12:35:34.438Z,90.80
2023-04-11T12:38:01.329Z,90.40
2023-04-11T12:40:29.720Z,91.00
2023-04-11T12:42:57.563Z,89.20
2023-04-11T12:45:25.735Z,90.90
2023-04-11T12:47:53.015Z,90.90
2023-04-11T12:50:19.775Z,89.60
2023-04-11T12:52:48.570Z,90.60
2023-04-11T12:55:15.348Z,88.90
2023-04-11T12:57:42.334Z,89.30
2023-04-11T13:00:11.704Z,89.80
2023-04-11T13:02:43.950Z,87.90
2023-04-11T13:05:15.063Z,87.00
2023-04-11T13:07:44.510Z,88.70
2023-04-11T13:10:13.371Z,88.10
2023-04-11T13:12:41.229Z,83.90
2023-04-11T13:15:11.676Z,86.30
2023-04-11T13:17:38.930Z,84.60
2023-04-11T13:20:10.065Z,85.50
2023-04-11T13:22:41.508Z,86.60
2023-04-11T13:25:09.470Z,86.90
2023-04-11T13:27:37.218Z,88.20
2023-04-11T13:30:04.932Z,87.40
2023-04-11T13:32:32.099Z,89.10
2023-04-11T13:34:58.935Z,89.40
2023-04-11T13:37:25.723Z,89.60
2023-04-11T13:39:52.427Z,89.60
2023-04-11T13:42:19.135Z,84.30
2023-04-11T13:44:45.838Z,81.70
2023-04-11T13:47:12.572Z,80.90
2023-04-11T13:49:39.220Z,82.00
2023-04-11T13:52:05.881Z,82.80
2023-04-11T13:54:32.569Z,83.30
2023-04-11T13:56:59.685Z,82.70
2023-04-11T13:59:27.567Z,83.80
2023-04-11T14:01:54.540Z,82.00
2023-04-11T14:04:21.732Z,80.90
2023-04-11T14:06:48.581Z,79.80
2023-04-11T14:09:15.259Z,81.00
2023-04-11T14:11:41.907Z,81.80
2023-04-11T14:14:08.562Z,80.00
2023-04-11T14:16:35.316Z,81.60
2023-04-11T14:19:02.457Z,80.20
2023-04-11T14:21:29.127Z,78.80
2023-04-11T14:23:56.721Z,77.70
2023-04-11T14:26:23.899Z,78.20
2023-04-11T14:28:50.579Z,80.30
2023-04-11T14:31:17.295Z,81.30
2023-04-11T14:33:44.024Z,80.40
2023-04-11T14:36:10.992Z,79.30
2023-04-11T14:38:37.650Z,79.90
2023-04-11T14:41:04.639Z,80.20
2023-04-11T14:43:31.403Z,80.00
2023-04-11T14:45:58.119Z,79.90
2023-04-11T14:48:28.750Z,81.30
2023-04-11T14:50:55.564Z,81.70
2023-04-11T14:53:22.841Z,79.50
2023-04-11T14:55:49.555Z,78.40
2023-04-11T14:58:16.980Z,78.10
2023-04-11T15:00:44.666Z,78.80
2023-04-11T15:03:12.311Z,77.80
2023-04-11T15:05:39.190Z,77.00
2023-04-11T15:08:06.080Z,75.50
2023-04-11T15:10:32.871Z,74.90
2023-04-11T15:12:59.665Z,75.30
2023-04-11T15:15:26.369Z,75.80
2023-04-11T15:18:19.128Z,77.00
2023-04-11T15:20:46.054Z,76.00
2023-04-11T15:23:12.723Z,75.60
2023-04-11T15:25:39.379Z,74.80
2023-04-11T15:28:06.180Z,76.50
2023-04-11T15:30:32.840Z,76.90
2023-04-11T15:32:59.548Z,75.30
2023-04-11T15:35:26.292Z,76.60
2023-04-11T15:37:52.968Z,75.40
2023-04-11T15:40:19.622Z,74.30
2023-04-11T15:42:46.344Z,72.30
2023-04-11T15:45:12.975Z,72.20
2023-04-11T15:47:39.782Z,72.80
2023-04-11T15:50:07.266Z,73.70
2023-04-11T15:52:34.101Z,74.20
2023-04-11T15:55:00.804Z,75.50
2023-04-11T15:57:28.585Z,73.00
2023-04-11T15:59:55.784Z,72.90
2023-04-11T16:02:23.823Z,71.90
2023-04-11T16:04:52.154Z,72.70
2023-04-11T16:07:23.039Z,73.20
2023-04-11T16:09:49.921Z,73.00
2023-04-11T16:12:16.565Z,73.90
2023-04-11T16:14:45.572Z,74.40
2023-04-11T16:17:13.234Z,75.60
2023-04-11T16:19:39.881Z,75.70
2023-04-11T16:22:06.527Z,75.70
2023-04-11T16:24:33.768Z,76.20
2023-04-11T16:27:00.978Z,75.60
2023-04-11T16:29:27.617Z,76.00
2023-04-11T16:31:55.065Z,76.70
2023-04-11T16:34:21.817Z,77.00
2023-04-11T16:36:48.576Z,77.30
2023-04-11T16:39:15.453Z,78.40
2023-04-11T16:41:42.147Z,78.40
2023-04-11T16:44:12.057Z,79.30
2023-04-11T16:46:42.232Z,77.90
2023-04-11T16:49:09.264Z,78.00
2023-04-11T16:51:37.008Z,78.00
2023-04-11T16:54:09.399Z,77.90
2023-04-11T16:56:36.820Z,78.50
2023-04-11T16:59:05.026Z,79.30
2023-04-11T17:01:32.429Z,80.70
2023-04-11T17:04:01.277Z,81.10
2023-04-11T17:06:28.325Z,81.10
2023-04-11T17:08:56.995Z,81.80
2023-04-11T17:11:23.724Z,81.30
2023-04-11T17:13:50.812Z,82.00
2023-04-11T17:16:17.928Z,81.20
2023-04-11T17:18:44.703Z,81.30
2023-04-11T17:21:11.412Z,82.00
2023-04-11T17:23:56.479Z,82.30
2023-04-11T17:26:23.200Z,82.80
2023-04-11T17:28:50.032Z,83.90
2023-04-11T17:31:18.604Z,82.80
2023-04-11T17:33:45.408Z,83.60
2023-04-11T17:36:13.143Z,85.20
2023-04-11T17:38:42.094Z,85.40
2023-04-11T17:41:14.443Z,86.30
2023-04-11T17:43:42.427Z,87.10
2023-04-11T17:46:09.450Z,86.60
2023-04-11T17:48:36.625Z,87.40
2023-04-11T17:51:05.343Z,88.20
2023-04-11T17:53:32.567Z,89.20
2023-04-11T17:56:04.301Z,89.70
2023-04-11T17:58:31.790Z,89.30
2023-04-11T18:00:58.560Z,90.20
2023-04-11T18:03:26.292Z,90.70
2023-04-11T18:05:54.392Z,90.10
2023-04-11T18:08:28.713Z,90.70
2023-04-11T18:11:04.168Z,90.60
2023-04-11T18:13:31.522Z,90.50
2023-04-11T18:15:58.509Z,91.00
2023-04-11T18:18:25.502Z,91.60
2023-04-11T18:20:52.170Z,91.60
2023-04-11T18:23:18.833Z,92.30
2023-04-11T18:25:45.511Z,92.50
2023-04-11T18:28:12.209Z,92.60
2023-04-11T18:30:38.935Z,92.50
2023-04-11T18:33:05.653Z,92.60
2023-04-11T18:35:32.562Z,92.90
2023-04-11T18:38:00.037Z,93.10
2023-04-11T18:40:27.365Z,93.70
2023-04-11T18:42:56.090Z,94.20
2023-04-11T18:45:23.841Z,94.40
2023-04-11T18:47:51.082Z,95.40
2023-04-11T18:50:18.651Z,96.30
2023-04-11T18:52:46.405Z,97.00
2023-04-11T18:55:14.857Z,97.70
2023-04-11T18:57:44.120Z,98.30
2023-04-11T19:00:18.422Z,98.20
2023-04-11T19:02:46.801Z,98.20
2023-04-11T19:05:14.315Z,99.00
2023-04-11T19:07:42.153Z,98.70
2023-04-11T19:10:10.862Z,99.20
2023-04-11T19:12:37.786Z,99.10
2023-04-11T19:15:09.044Z,99.90
2023-04-11T19:17:38.161Z,99.90
2023-04-11T19:20:16.346Z,99.90
2023-04-11T19:22:43.222Z,99.90
2023-04-11T19:25:11.117Z,99.90
2023-04-11T19:27:40.295Z,99.90
2023-04-11T19:30:10.738Z,99.90
2023-04-11T19:32:43.242Z,99.90
2023-04-11T19:35:11.404Z,99.90
2023-04-11T19:37:38.700Z,99.90
2023-04-11T19:40:07.124Z,99.90
2023-04-11T19:42:36.643Z,99.90
2023-04-11T19:45:04.549Z,99.90
2023-04-11T19:47:31.539Z,99.90
2023-04-11T19:50:00.438Z,99.90
2023-04-11T19:52:27.704Z,99.90
2023-04-11T19:54:56.371Z,99.90
2023-04-11T19:57:27.162Z,99.90
2023-04-11T19:59:53.887Z,99.90
2023-04-11T20:02:21.223Z,99.90
2023-04-11T20:04:48.171Z,99.90
2023-04-11T20:07:15.476Z,99.90
2023-04-11T20:09:42.265Z,99.90
2023-04-11T20:12:08.928Z,99.90
2023-04-11T20:14:37.268Z,99.90
2023-04-11T20:17:04.665Z,99.90
2023-04-11T20:19:33.079Z,99.90
2023-04-11T20:22:00.796Z,99.90
2023-04-11T20:24:27.777Z,99.90
2023-04-11T20:26:55.267Z,99.90
2023-04-11T20:29:32.579Z,99.90
2023-04-11T20:31:59.709Z,99.90
2023-04-11T20:34:26.372Z,99.90
2023-04-11T20:36:53.042Z,99.90
2023-04-11T20:39:19.792Z,99.90
2023-04-11T20:41:46.440Z,99.90
2023-04-11T20:44:17.570Z,99.90
2023-04-11T20:46:44.373Z,99.90
2023-04-11T20:49:11.655Z,99.90
2023-04-11T20:51:38.303Z,99.90
2023-04-11T20:54:05.066Z,99.90
2023-04-11T20:56:35.409Z,99.90
2023-04-11T20:59:03.425Z,99.90
2023-04-11T21:01:33.649Z,99.90
2023-04-11T21:04:03.159Z,99.90
2023-04-11T21:06:30.973Z,99.90
2023-04-11T21:08:58.370Z,99.90
2023-04-11T21:11:25.108Z,99.90
2023-04-11T21:13:54.477Z,99.90
2023-04-11T21:16:21.748Z,99.90
2023-04-11T21:18:48.699Z,99.90
2023-04-11T21:21:15.330Z,99.90
2023-04-11T21:23:43.285Z,99.90
2023-04-11T21:26:09.926Z,99.90
2023-04-11T21:28:36.797Z,99.90
2023-04-11T21:31:03.583Z,99.90
2023-04-11T21:33:30.323Z,99.90
2023-04-11T21:35:57.166Z,99.90
2023-04-11T21:38:23.955Z,99.90
2023-04-11T21:40:51.217Z,99.90
2023-04-11T21:43:17.899Z,99.90
2023-04-11T21:45:44.516Z,99.90
2023-04-11T21:48:11.269Z,99.90
2023-04-11T21:50:37.994Z,99.90
2023-04-11T21:53:04.655Z,99.90
2023-04-11T21:55:31.278Z,99.90
2023-04-11T21:57:57.957Z,99.90
2023-04-11T22:00:24.840Z,99.90
2023-04-11T22:02:51.718Z,99.90
2023-04-11T22:05:19.192Z,99.90
2023-04-11T22:07:48.917Z,99.90
2023-04-11T22:10:22.042Z,99.90
2023-04-11T22:12:48.880Z,99.90
2023-04-11T22:15:18.361Z,99.90
2023-04-11T22:17:50.334Z,99.90
2023-04-11T22:20:18.126Z,99.90
2023-04-11T22:22:45.006Z,99.90
2023-04-11T22:25:11.748Z,99.90
2023-04-11T22:27:38.660Z,99.90
2023-04-11T22:30:06.722Z,99.90
2023-04-11T22:32:33.833Z,99.90
2023-04-11T22:35:01.026Z,99.90
2023-04-11T22:37:27.741Z,99.90
2023-04-11T22:39:54.392Z,99.90
2023-04-11T22:42:21.046Z,99.90
2023-04-11T22:44:47.696Z,99.90
2023-04-11T22:47:16.285Z,99.90
2023-04-11T22:49:44.689Z,99.90
2023-04-11T22:52:14.344Z,99.90
2023-04-11T22:54:42.475Z,99.90
2023-04-11T22:57:09.383Z,99.90
2023-04-11T22:59:36.824Z,99.90
2023-04-11T23:02:03.641Z,99.90
2023-04-11T23:04:31.706Z,99.90
2023-04-11T23:06:58.897Z,99.90
2023-04-11T23:09:26.162Z,99.90
2023-04-11T23:11:53.308Z,99.90
2023-04-11T23:14:21.178Z,99.90
2023-04-11T23:16:48.500Z,99.90
2023-04-11T23:19:15.513Z,99.90
2023-04-11T23:21:42.907Z,99.90
2023-04-11T23:24:09.761Z,99.90
2023-04-11T23:26:37.103Z,99.90
2023-04-11T23:29:04.079Z,99.90
2023-04-11T23:31:31.657Z,99.90
2023-04-11T23:33:58.642Z,99.90
2023-04-11T23:36:27.469Z,99.90
2023-04-11T23:38:54.225Z,99.90
2023-04-11T23:41:20.931Z,99.90
2023-04-11T23:43:47.620Z,99.90
2023-04-11T23:46:16.658Z,99.90
2023-04-11T23:48:44.131Z,99.90
2023-04-11T23:51:10.810Z,99.90
2023-04-11T23:53:37.461Z,99.90
2023-04-11T23:56:04.450Z,99.90
2023-04-11T23:58:31.217Z,99.90
